If you wish to contribute or participate in the discussions about articles you are invited to join SKYbrary as a registered user

 Actions

Strasbourg Airport

From SKYbrary Wiki

LFST /
Revision as of 20:14, 16 February 2015 by Timo.Kouwenhoven (talk | contribs) (LF Airports CSV import)
(diff) ← Older revision | Latest revision (diff) | Newer revision → (diff)
Airport
ICAO: LFST – IATA: SXB
Summary
Name Strasbourg Airport
Region Europe
Territory France FR.gif
Location , Alsace
Serving Strasbourg
Elevation 153.924 m
505 ft
505 ft153.924 m
Type medium airport
Coordinates 48° 32' 17.95" N, 7° 37' 41.64" E
Runways
Designator Length Width Surface ROPS
5/23 2400 m7,874.016 ft
45 m147.638 ft
ASP yes/yes


METAR
Observation LFST 200400Z AUTO 36004KT 0600 0500 R23/0600N R05/0800U FZFG VV/// M00/M00 Q1018 NOSIG
Station Strasbourg
Date/Time 20 November 2019 04:00:00
Wind direction 360°
Wind speed 04 kts
Lowest cloud amount n/a
Temperature 23°C
Dew point 0°C
Humidity 21%
QNH 1018 hPa
Weather condition n/a